createdAt,value
2023-01-05T00:00:30.986Z,30.60
2023-01-05T00:05:33.037Z,37.05
2023-01-05T00:10:55.566Z,33.13
2023-01-05T00:16:17.869Z,32.05
2023-01-05T00:21:46.241Z,37.33
2023-01-05T00:26:48.297Z,27.80
2023-01-05T00:31:50.361Z,32.88
2023-01-05T00:36:52.558Z,32.45
2023-01-05T00:41:54.675Z,33.97
2023-01-05T00:46:56.891Z,32.30
2023-01-05T00:51:59.259Z,47.20
2023-01-05T00:57:01.867Z,33.20
2023-01-05T01:02:04.388Z,38.63
2023-01-05T01:07:06.793Z,35.08
2023-01-05T01:12:09.344Z,31.95
2023-01-05T01:17:11.572Z,35.78
2023-01-05T01:22:14.556Z,37.10
2023-01-05T01:27:16.648Z,40.83
2023-01-05T01:32:18.786Z,29.60
2023-01-05T01:37:20.854Z,28.33
2023-01-05T01:42:26.952Z,40.88
2023-01-05T01:47:35.891Z,41.45
2023-01-05T01:52:38.482Z,28.85
2023-01-05T01:57:41.820Z,27.80
2023-01-05T02:02:46.208Z,34.88
2023-01-05T02:07:50.090Z,30.65
2023-01-05T02:13:18.967Z,40.60
2023-01-05T02:18:26.209Z,35.30
2023-01-05T02:23:54.811Z,31.77
2023-01-05T02:29:24.767Z,33.92
2023-01-05T02:39:55.391Z,32.22
2023-01-05T02:45:02.545Z,36.25
2023-01-05T02:50:09.726Z,36.13
2023-01-05T02:55:17.265Z,35.60
2023-01-05T03:00:26.615Z,40.95
2023-01-05T03:11:06.490Z,37.50
2023-01-05T03:16:18.289Z,43.70
2023-01-05T03:21:23.606Z,38.08
2023-01-05T03:26:44.744Z,33.28
2023-01-05T03:32:34.957Z,43.17
2023-01-05T03:37:43.626Z,40.92
2023-01-05T03:42:47.948Z,42.35
2023-01-05T03:47:51.056Z,35.67
2023-01-05T03:52:58.333Z,39.30
2023-01-05T03:58:03.948Z,36.50
2023-01-05T04:03:06.214Z,33.13
2023-01-05T04:08:08.496Z,42.17
2023-01-05T04:13:11.917Z,40.72
2023-01-05T04:18:14.431Z,39.58
2023-01-05T04:23:16.647Z,33.60
2023-01-05T04:28:18.807Z,38.95
2023-01-05T04:33:23.340Z,35.63
2023-01-05T04:38:25.660Z,40.85
2023-01-05T04:43:29.640Z,37.60
2023-01-05T04:48:34.652Z,39.35
2023-01-05T04:53:39.092Z,35.58
2023-01-05T04:58:44.555Z,41.72
2023-01-05T05:03:48.114Z,45.92
2023-01-05T05:08:53.744Z,42.53
2023-01-05T05:13:56.993Z,40.83
2023-01-05T05:19:00.046Z,32.50
2023-01-05T05:24:03.674Z,42.47
2023-01-05T05:29:08.830Z,37.35
2023-01-05T05:34:10.873Z,31.85
2023-01-05T05:39:13.865Z,37.28
2023-01-05T05:44:16.024Z,41.50
2023-01-05T05:49:18.096Z,48.53
2023-01-05T05:54:20.448Z,36.60
2023-01-05T05:59:22.517Z,41.83
2023-01-05T06:04:24.650Z,45.17
2023-01-05T06:09:26.804Z,36.75
2023-01-05T06:14:28.872Z,37.13
2023-01-05T06:19:30.967Z,38.03
2023-01-05T06:24:32.975Z,38.00
2023-01-05T06:29:35.105Z,40.03
2023-01-05T06:34:37.522Z,35.67
2023-01-05T06:39:39.661Z,34.65
2023-01-05T06:44:42.536Z,43.20
2023-01-05T06:49:44.739Z,42.22
2023-01-05T06:54:47.069Z,42.40
2023-01-05T06:59:49.106Z,38.83
2023-01-05T07:04:51.344Z,35.28
2023-01-05T07:09:53.607Z,38.75
2023-01-05T07:14:57.774Z,47.30
2023-01-05T07:20:00.050Z,40.63
2023-01-05T07:25:02.277Z,50.60
2023-01-05T07:30:04.973Z,48.88
2023-01-05T07:35:07.503Z,36.60
2023-01-05T07:40:10.724Z,50.35
2023-01-05T07:45:12.751Z,41.90
2023-01-05T07:50:14.866Z,42.88
2023-01-05T07:55:17.015Z,43.33
2023-01-05T08:00:19.340Z,39.13
2023-01-05T08:05:21.366Z,31.08
2023-01-05T08:10:29.093Z,36.35
2023-01-05T08:15:31.125Z,49.85
2023-01-05T08:20:33.202Z,39.30
2023-01-05T08:25:35.298Z,37.30
2023-01-05T08:30:37.561Z,42.22
2023-01-05T08:35:41.114Z,41.55
2023-01-05T08:40:43.130Z,48.42
2023-01-05T08:45:50.053Z,48.03
2023-01-05T08:50:52.258Z,39.88
2023-01-05T08:55:54.267Z,32.58
2023-01-05T09:00:56.334Z,48.65
2023-01-05T09:06:02.445Z,41.33
2023-01-05T09:11:13.336Z,46.42
2023-01-05T09:16:35.148Z,44.38
2023-01-05T09:21:41.011Z,48.33
2023-01-05T09:26:43.792Z,49.58
2023-01-05T09:31:46.043Z,40.20
2023-01-05T09:36:48.362Z,44.15
2023-01-05T09:41:56.675Z,40.88
2023-01-05T09:47:11.558Z,48.03
2023-01-05T09:52:14.171Z,54.70
2023-01-05T09:57:19.771Z,34.17
2023-01-05T10:02:38.722Z,36.80
2023-01-05T10:07:46.091Z,46.95
2023-01-05T10:13:05.518Z,47.63
2023-01-05T10:18:14.047Z,35.20
2023-01-05T10:23:44.648Z,32.20
2023-01-05T10:28:52.660Z,41.95
2023-01-05T10:34:17.257Z,46.40
2023-01-05T10:39:54.165Z,45.95
2023-01-05T10:45:02.389Z,44.35
2023-01-05T10:50:24.575Z,42.67
2023-01-05T10:55:30.070Z,43.03
2023-01-05T11:00:43.000Z,38.72
2023-01-05T11:05:48.108Z,38.10
2023-01-05T11:10:54.056Z,42.42
2023-01-05T11:16:01.502Z,44.30
2023-01-05T11:21:25.235Z,39.17
2023-01-05T11:26:35.984Z,37.30
2023-01-05T11:31:50.022Z,46.85
2023-01-05T11:37:12.330Z,39.47
2023-01-05T11:42:24.959Z,28.48
2023-01-05T11:47:29.867Z,44.83
2023-01-05T11:52:37.927Z,47.53
2023-01-05T11:57:39.902Z,31.83
2023-01-05T12:03:06.994Z,33.20
2023-01-05T12:08:23.205Z,35.20
2023-01-05T12:13:46.412Z,39.75
2023-01-05T12:19:02.183Z,41.92
2023-01-05T12:24:19.214Z,47.13
2023-01-05T12:31:29.425Z,32.78
2023-01-05T12:35:28.442Z,33.33
2023-01-05T12:40:55.480Z,35.72
2023-01-05T12:46:17.743Z,42.67
2023-01-05T12:51:29.174Z,40.83
2023-01-05T12:56:38.861Z,43.20
2023-01-05T13:01:59.905Z,31.00
2023-01-05T13:07:06.562Z,39.45
2023-01-05T13:12:13.140Z,37.45
2023-01-05T13:17:20.662Z,38.40
2023-01-05T13:22:26.328Z,36.33
2023-01-05T13:27:32.664Z,33.05
2023-01-05T13:33:02.026Z,30.70
2023-01-05T13:38:34.348Z,39.42
2023-01-05T13:43:56.829Z,32.97
2023-01-05T13:49:32.141Z,42.72
2023-01-05T13:54:43.825Z,43.15
2023-01-05T14:00:05.054Z,38.55
2023-01-05T14:05:25.392Z,31.00
2023-01-05T14:10:30.676Z,34.75
2023-01-05T14:15:42.219Z,40.67
2023-01-05T14:20:48.618Z,27.08
2023-01-05T14:26:01.159Z,32.80
2023-01-05T14:31:16.256Z,37.83
2023-01-05T14:36:36.586Z,43.17
2023-01-05T14:41:38.662Z,36.22
2023-01-05T14:46:51.673Z,29.67
2023-01-05T14:51:56.652Z,30.05
2023-01-05T14:57:25.331Z,39.50
2023-01-05T15:02:32.417Z,36.35
2023-01-05T15:08:00.866Z,40.08
2023-01-05T15:18:20.984Z,34.45
2023-01-05T15:23:50.214Z,39.70
2023-01-05T15:29:10.203Z,38.65
2023-01-05T15:34:21.244Z,42.50
2023-01-05T15:39:32.914Z,34.20
2023-01-05T15:44:39.465Z,47.97
2023-01-05T15:49:41.664Z,35.30
2023-01-05T15:54:43.736Z,38.67
2023-01-05T15:59:49.080Z,40.35
2023-01-05T16:05:16.436Z,40.90
2023-01-05T16:10:22.493Z,43.28
2023-01-05T16:15:26.083Z,43.50
2023-01-05T16:20:28.553Z,37.95
2023-01-05T16:25:35.923Z,38.97
2023-01-05T16:30:42.328Z,48.95
2023-01-05T16:35:46.765Z,49.42
2023-01-05T16:40:49.547Z,48.20
2023-01-05T16:45:58.058Z,46.28
2023-01-05T16:51:03.984Z,47.55
2023-01-05T16:56:21.810Z,52.42
2023-01-05T17:01:27.115Z,52.53
2023-01-05T17:06:31.399Z,48.67
2023-01-05T17:11:38.196Z,44.35
2023-01-05T17:16:40.488Z,40.90
2023-01-05T17:21:45.123Z,41.55
2023-01-05T17:26:47.496Z,43.80
2023-01-05T17:31:50.104Z,47.58
2023-01-05T17:36:55.947Z,45.33
2023-01-05T17:42:19.581Z,51.10
2023-01-05T17:47:24.622Z,46.70
2023-01-05T17:52:27.072Z,43.50
2023-01-05T17:57:29.181Z,46.42
2023-01-05T18:02:31.594Z,43.05
2023-01-05T18:07:34.345Z,48.15
2023-01-05T18:12:36.770Z,42.42
2023-01-05T18:17:38.785Z,40.10
2023-01-05T18:22:41.444Z,44.75
2023-01-05T18:27:43.987Z,46.78
2023-01-05T18:32:46.177Z,37.95
2023-01-05T18:37:48.301Z,41.03
2023-01-05T18:42:50.550Z,38.88
2023-01-05T18:47:57.822Z,39.63
2023-01-05T18:53:00.078Z,35.42
2023-01-05T18:58:02.246Z,27.77
2023-01-05T19:03:04.331Z,21.58
2023-01-05T19:08:07.447Z,22.77
2023-01-05T19:13:09.498Z,21.15
2023-01-05T19:18:11.490Z,17.77
2023-01-05T19:23:13.518Z,16.38
2023-01-05T19:28:15.653Z,9.85
2023-01-05T19:33:17.636Z,10.25
2023-01-05T19:38:19.768Z,9.25
2023-01-05T19:43:22.107Z,10.15
2023-01-05T19:48:24.238Z,11.35
2023-01-05T19:53:26.969Z,7.93
2023-01-05T19:58:29.029Z,9.48
2023-01-05T20:03:31.067Z,9.48
2023-01-05T20:08:33.810Z,12.30
2023-01-05T20:13:36.465Z,10.05
2023-01-05T20:18:39.448Z,13.73
2023-01-05T20:23:42.672Z,14.63
2023-01-05T20:28:45.733Z,15.80
2023-01-05T20:33:48.433Z,14.43
2023-01-05T20:38:50.476Z,18.13
2023-01-05T20:43:53.644Z,20.20
2023-01-05T20:48:56.669Z,22.95
2023-01-05T20:54:01.575Z,27.67
2023-01-05T20:59:06.280Z,22.67
2023-01-05T21:04:08.597Z,18.00
2023-01-05T21:09:11.613Z,24.77
2023-01-05T21:14:14.880Z,21.45
2023-01-05T21:19:21.677Z,21.45
2023-01-05T21:24:25.459Z,19.58
2023-01-05T21:29:27.924Z,14.98
2023-01-05T21:34:30.205Z,18.40
2023-01-05T21:39:32.423Z,19.10
2023-01-05T21:44:34.747Z,16.10
2023-01-05T21:49:36.812Z,14.90
2023-01-05T21:54:57.424Z,14.32
2023-01-05T21:59:59.542Z,15.43
2023-01-05T22:05:01.684Z,12.55
2023-01-05T22:10:05.046Z,13.10
2023-01-05T22:15:07.633Z,15.20
2023-01-05T22:20:10.417Z,16.45
2023-01-05T22:25:12.454Z,14.35
2023-01-05T22:30:14.494Z,12.90
2023-01-05T22:35:16.588Z,13.77
2023-01-05T22:40:21.743Z,15.40
2023-01-05T22:45:23.825Z,10.13
2023-01-05T22:50:25.842Z,11.30
2023-01-05T22:55:27.932Z,13.02
2023-01-05T23:00:30.082Z,9.73
2023-01-05T23:05:32.497Z,18.42
2023-01-05T23:10:34.628Z,9.43
2023-01-05T23:15:36.606Z,16.10
2023-01-05T23:20:38.663Z,12.40
2023-01-05T23:25:40.680Z,13.38
2023-01-05T23:30:42.809Z,11.40
2023-01-05T23:35:45.959Z,11.93
2023-01-05T23:40:50.280Z,17.15
2023-01-05T23:45:58.823Z,13.32
2023-01-05T23:51:00.911Z,13.18
2023-01-05T23:56:12.130Z,10.00
